Time;durP1;ratioP1;P1;durP2;ratioP2;P2;SDS_P1;SDS_P2;PMS_P1;PMS_P2;Temp;Humidity;BMP_temperature;BMP_pressure;BME280_temperature;BME280_humidity;BME280_pressure;Samples;Min_cycle;Max_cycle;Signal;HPM_P1;HPM_P2
2022/01/06 00:00:04;;;;;;;20.63;13.48;;;;;;;1.20;100.00;101060.63;5130592;27;20027;-74
2022/01/06 00:02:29;;;;;;;23.00;13.85;;;;;;;1.21;100.00;101061.44;5099902;27;20043;-73
2022/01/06 00:04:55;;;;;;;23.17;13.43;;;;;;;1.24;100.00;101056.38;5105823;27;20042;-74
2022/01/06 00:07:20;;;;;;;21.88;13.13;;;;;;;1.24;100.00;101058.25;5102030;27;20027;-74
2022/01/06 00:09:48;;;;;;;21.52;12.35;;;;;;;1.21;100.00;101050.50;5112548;27;20035;-73
2022/01/06 00:12:16;;;;;;;19.38;12.57;;;;;;;1.23;100.00;101053.88;5093097;27;20062;-74
2022/01/06 00:25:30;;;;;;;21.20;12.98;;;;;;;1.21;100.00;101045.03;5041265;28;20065;-73
2022/01/06 00:27:55;;;;;;;20.27;11.90;;;;;;;1.20;100.00;101037.84;5072828;27;20032;-73
2022/01/06 00:30:21;;;;;;;20.60;12.10;;;;;;;1.16;100.00;101039.38;5090618;27;20035;-73
2022/01/06 00:32:46;;;;;;;19.98;12.27;;;;;;;1.17;100.00;101041.91;5088294;27;20108;-73
2022/01/06 00:35:12;;;;;;;19.05;11.52;;;;;;;1.14;100.00;101045.03;5077320;27;20031;-73
2022/01/06 00:37:37;;;;;;;17.95;11.07;;;;;;;1.10;100.00;101046.56;5080952;27;20043;-73
2022/01/06 00:40:03;;;;;;;21.50;13.23;;;;;;;1.10;100.00;101046.56;5078922;28;20528;-73
2022/01/06 00:42:29;;;;;;;18.35;12.15;;;;;;;1.09;100.00;101042.97;5129667;27;20027;-73
2022/01/06 00:44:54;;;;;;;21.60;12.85;;;;;;;1.06;100.00;101039.84;5120554;27;20031;-73
2022/01/06 00:47:20;;;;;;;20.13;12.30;;;;;;;1.05;100.00;101047.19;5095825;28;20667;-73
2022/01/06 00:49:46;;;;;;;19.92;12.27;;;;;;;1.06;100.00;101050.81;5083012;27;20048;-73
2022/01/06 00:52:12;;;;;;;18.10;11.60;;;;;;;1.01;100.00;101043.22;5111944;27;20107;-73
2022/01/06 00:54:38;;;;;;;19.55;12.10;;;;;;;1.05;100.00;101054.56;5105556;27;20043;-73
2022/01/06 00:57:04;;;;;;;19.80;12.20;;;;;;;1.02;100.00;101047.63;5073224;27;20114;-74
2022/01/06 00:59:30;;;;;;;18.70;11.98;;;;;;;1.00;100.00;101049.75;5101317;28;20173;-73
2022/01/06 01:01:55;;;;;;;21.13;11.90;;;;;;;1.00;100.00;101048.91;5097870;27;20059;-73
2022/01/06 01:04:20;;;;;;;19.23;12.20;;;;;;;1.01;100.00;101054.19;5110266;28;20035;-73
2022/01/06 01:06:46;;;;;;;19.02;12.07;;;;;;;1.00;100.00;101049.75;5106937;27;20045;-73
2022/01/06 01:09:11;;;;;;;21.88;12.10;;;;;;;1.01;100.00;101051.44;5095878;27;20032;-73
2022/01/06 01:11:38;;;;;;;19.95;11.85;;;;;;;1.00;100.00;101046.16;5104222;27;20024;-73
2022/01/06 01:14:17;;;;;;;19.38;11.90;;;;;;;1.00;100.00;101051.63;5102628;27;20027;-74
2022/01/06 01:16:52;;;;;;;20.98;11.93;;;;;;;1.01;100.00;101058.81;5104472;28;20035;-74
2022/01/06 01:19:17;;;;;;;19.65;12.00;;;;;;;1.01;100.00;101053.34;5096201;28;20031;-74
2022/01/06 01:21:43;;;;;;;20.67;12.30;;;;;;;1.01;100.00;101045.97;5104937;27;20059;-73
2022/01/06 01:24:08;;;;;;;21.17;12.27;;;;;;;1.02;100.00;101046.81;5138783;27;20038;-73
2022/01/06 01:26:34;;;;;;;19.42;12.77;;;;;;;1.01;100.00;101051.44;5103988;27;20037;-74
2022/01/06 01:28:59;;;;;;;19.85;13.50;;;;;;;1.04;100.00;101052.91;5130409;27;20057;-73
2022/01/06 01:31:27;;;;;;;21.67;12.43;;;;;;;1.05;100.00;101049.94;5116183;27;20036;-73
2022/01/06 01:33:53;;;;;;;20.08;12.73;;;;;;;1.05;100.00;101055.41;5087598;28;20047;-74
2022/01/06 01:36:19;;;;;;;23.70;12.75;;;;;;;1.07;100.00;101061.50;5077639;28;20023;-73
2022/01/06 01:38:45;;;;;;;22.88;12.60;;;;;;;1.07;100.00;101066.97;5095412;28;20031;-74
2022/01/06 01:41:11;;;;;;;21.05;12.18;;;;;;;1.11;100.00;101068.22;5063389;28;20065;-74
2022/01/06 01:43:37;;;;;;;23.17;12.48;;;;;;;1.11;100.00;101076.44;5058761;28;20498;-73
2022/01/06 01:46:10;;;;;;;19.92;11.57;;;;;;;1.14;100.00;101077.88;5083535;28;20036;-73
2022/01/06 01:48:39;;;;;;;22.98;12.75;;;;;;;1.14;100.00;101079.78;5055284;28;20663;-74
2022/01/06 01:51:04;;;;;;;17.77;12.43;;;;;;;1.11;100.00;101087.38;5060195;28;20023;-73
2022/01/06 01:53:30;;;;;;;17.95;12.43;;;;;;;1.13;100.00;101080.84;5060907;28;20095;-73
2022/01/06 01:55:55;;;;;;;21.70;12.52;;;;;;;1.11;100.00;101084.66;5092961;28;20032;-73
2022/01/06 01:58:21;;;;;;;16.75;11.10;;;;;;;1.13;100.00;101078.09;5096138;28;20028;-73
2022/01/06 02:00:46;;;;;;;18.88;11.45;;;;;;;1.16;100.00;101086.72;5078564;28;20036;-73
2022/01/06 02:03:12;;;;;;;19.77;11.63;;;;;;;1.18;100.00;101089.25;5072924;28;20039;-73
2022/01/06 02:05:37;;;;;;;19.23;13.00;;;;;;;1.18;100.00;101095.56;5103140;27;20058;-73
2022/01/06 02:08:05;;;;;;;21.60;12.70;;;;;;;1.16;100.00;101085.88;5073756;28;20120;-73
2022/01/06 02:10:31;;;;;;;22.38;12.77;;;;;;;1.16;100.00;101085.88;5095162;28;20059;-73
2022/01/06 02:12:57;;;;;;;18.95;12.63;;;;;;;1.19;100.00;101091.75;5095553;28;20515;-73
2022/01/06 02:15:23;;;;;;;20.85;12.40;;;;;;;1.22;100.00;101080.38;5058010;28;20024;-73
2022/01/06 02:17:49;;;;;;;19.17;11.38;;;;;;;1.23;100.00;101089.44;5057460;28;20042;-73
2022/01/06 02:20:15;;;;;;;20.95;12.30;;;;;;;1.22;100.00;101079.53;5065265;28;20055;-73
2022/01/06 02:22:41;;;;;;;20.52;11.98;;;;;;;1.22;100.00;101091.31;5062560;28;20027;-73
2022/01/06 02:25:32;;;;;;;20.58;12.38;;;;;;;1.19;100.00;101083.53;5068609;28;20035;-73
2022/01/06 02:27:57;;;;;;;18.23;11.52;;;;;;;1.21;100.00;101083.34;5063209;28;20047;-73
2022/01/06 02:30:24;;;;;;;20.25;11.82;;;;;;;1.22;100.00;101082.25;5057355;28;20044;-73
2022/01/06 02:32:50;;;;;;;18.75;11.70;;;;;;;1.22;100.00;101076.78;5084421;28;20036;-74
2022/01/06 02:35:21;;;;;;;19.80;11.85;;;;;;;1.21;100.00;101083.34;5078528;28;20043;-73
2022/01/06 02:37:47;;;;;;;21.23;11.02;;;;;;;1.22;100.00;101083.09;5094201;28;20090;-73
2022/01/06 02:40:14;;;;;;;19.00;10.98;;;;;;;1.21;100.00;101086.06;5069876;28;20028;-74
2022/01/06 02:42:44;;;;;;;19.42;11.70;;;;;;;1.21;100.00;101073.22;5093011;28;20059;-73
2022/01/06 02:45:11;;;;;;;17.15;10.95;;;;;;;1.20;100.00;101076.16;5110540;28;20027;-73
2022/01/06 02:47:37;;;;;;;17.25;11.07;;;;;;;1.20;100.00;101081.63;5099644;28;20024;-73
2022/01/06 02:50:03;;;;;;;20.35;11.98;;;;;;;1.19;100.00;101077.22;5084528;28;20118;-73
2022/01/06 02:52:29;;;;;;;14.60;10.02;;;;;;;1.18;100.00;101076.41;5075808;28;20054;-73
2022/01/06 02:54:54;;;;;;;16.88;10.75;;;;;;;1.18;100.00;101068.19;5082182;28;20040;-73
2022/01/06 02:57:20;;;;;;;16.65;10.43;;;;;;;1.20;100.00;101074.28;5077054;28;20526;-74
2022/01/06 02:59:45;;;;;;;15.32;10.55;;;;;;;1.19;100.00;101074.50;5074881;28;20046;-74
2022/01/06 03:02:11;;;;;;;17.08;10.10;;;;;;;1.18;100.00;101067.34;5088877;28;20656;-73
2022/01/06 03:04:36;;;;;;;16.55;10.45;;;;;;;1.20;100.00;101062.47;5113639;28;20043;-73
2022/01/06 03:07:03;;;;;;;17.88;11.20;;;;;;;1.18;100.00;101059.16;5093295;28;20035;-74
2022/01/06 03:09:37;;;;;;;14.00;9.70;;;;;;;1.16;100.00;101070.28;5093003;28;20028;-73
2022/01/06 03:12:09;;;;;;;15.73;10.25;;;;;;;1.17;100.00;101060.19;5053923;28;20028;-73
2022/01/06 03:14:37;;;;;;;19.52;11.07;;;;;;;1.18;100.00;101061.88;5069919;28;20058;-73
2022/01/06 03:17:03;;;;;;;17.77;9.90;;;;;;;1.16;100.00;101050.31;5049693;28;20037;-74
2022/01/06 03:19:28;;;;;;;17.20;10.63;;;;;;;1.14;100.00;101052.41;5078650;28;20437;-74
2022/01/06 03:21:54;;;;;;;16.10;10.43;;;;;;;1.14;100.00;101047.78;5061157;28;20032;-73
2022/01/06 03:24:20;;;;;;;18.67;10.38;;;;;;;1.16;100.00;101053.03;5103874;28;20076;-74
2022/01/06 03:26:45;;;;;;;16.42;10.13;;;;;;;1.14;100.00;101050.50;5099467;28;20035;-74
2022/01/06 03:29:11;;;;;;;18.20;10.60;;;;;;;1.14;100.00;101056.00;5084589;28;20032;-74
2022/01/06 03:31:36;;;;;;;17.80;10.50;;;;;;;1.13;100.00;101054.31;5104431;28;20522;-74
2022/01/06 03:34:02;;;;;;;14.77;9.73;;;;;;;1.16;100.00;101062.09;5093052;28;20028;-74
2022/01/06 03:36:27;;;;;;;15.57;10.27;;;;;;;1.14;100.00;101061.47;5090438;28;20035;-74
2022/01/06 03:38:53;;;;;;;18.90;10.38;;;;;;;1.16;100.00;101061.25;5081324;28;20668;-74
2022/01/06 03:41:18;;;;;;;20.42;10.35;;;;;;;1.18;100.00;101065.44;5082922;28;20028;-74
2022/01/06 03:43:44;;;;;;;16.38;9.65;;;;;;;1.15;100.00;101063.16;5080072;28;20028;-74
2022/01/06 03:46:09;;;;;;;17.45;10.30;;;;;;;1.16;100.00;101069.47;5078954;28;20053;-74
2022/01/06 03:48:35;;;;;;;13.75;9.40;;;;;;;1.19;100.00;101060.81;5099378;28;20043;-73
2022/01/06 03:51:00;;;;;;;17.42;9.68;;;;;;;1.16;100.00;101059.34;5099925;28;20074;-73
2022/01/06 03:53:25;;;;;;;16.27;9.50;;;;;;;1.16;100.00;101053.03;5096383;28;20475;-74
2022/01/06 03:55:51;;;;;;;14.05;9.55;;;;;;;1.14;100.00;101055.16;5091213;28;20032;-74
2022/01/06 03:58:16;;;;;;;17.90;9.23;;;;;;;1.14;100.00;101057.88;5112925;27;20031;-73
2022/01/06 04:00:42;;;;;;;16.27;9.40;;;;;;;1.14;100.00;101057.88;5085200;28;20034;-74
2022/01/06 04:03:07;;;;;;;19.40;10.02;;;;;;;1.13;100.00;101065.25;5096742;28;20028;-74
2022/01/06 04:05:33;;;;;;;15.18;9.68;;;;;;;1.08;100.00;101068.66;5073446;28;20035;-74
2022/01/06 04:08:00;;;;;;;18.27;9.30;;;;;;;1.13;100.00;101053.50;5082339;28;20032;-74
2022/01/06 04:10:25;;;;;;;17.83;9.75;;;;;;;1.11;100.00;101062.75;5097740;28;20085;-73
2022/01/06 04:12:51;;;;;;;20.25;12.77;;;;;;;1.04;100.00;101072.88;5098344;28;20506;-73
2022/01/06 04:15:16;;;;;;;17.20;10.50;;;;;;;1.06;100.00;101068.03;5089423;27;20027;-74
2022/01/06 04:17:42;;;;;;;20.67;11.25;;;;;;;1.11;100.00;101060.03;5063969;28;20031;-74
2022/01/06 04:20:08;;;;;;;21.33;10.57;;;;;;;1.11;100.00;101072.84;5087843;28;20099;-73
2022/01/06 04:22:35;;;;;;;20.10;12.98;;;;;;;1.05;100.00;101066.34;5096236;28;20036;-73
2022/01/06 04:25:00;;;;;;;20.88;12.10;;;;;;;1.03;100.00;101057.53;5097819;28;20084;-73
2022/01/06 04:27:26;;;;;;;20.95;12.50;;;;;;;1.08;100.00;101059.59;5109382;28;20032;-73
2022/01/06 04:29:51;;;;;;;19.50;12.70;;;;;;;1.09;100.00;101070.34;5103753;27;20044;-73
2022/01/06 04:32:17;;;;;;;19.20;12.13;;;;;;;1.07;100.00;101056.03;5072922;28;20416;-74
2022/01/06 04:34:42;;;;;;;16.52;11.40;;;;;;;1.09;100.00;101062.13;5095209;28;20024;-73
2022/01/06 04:37:08;;;;;;;18.10;12.50;;;;;;;1.13;100.00;101057.06;5097351;28;20023;-73
2022/01/06 04:39:33;;;;;;;18.90;12.23;;;;;;;1.14;100.00;101049.69;5098579;28;20027;-73
2022/01/06 04:41:59;;;;;;;17.38;11.40;;;;;;;1.14;100.00;101049.69;5080788;28;20384;-74
2022/01/06 04:44:24;;;;;;;17.50;11.68;;;;;;;1.17;100.00;101054.72;5115383;28;20027;-73
2022/01/06 04:46:50;;;;;;;22.08;12.30;;;;;;;1.16;100.00;101042.94;5109852;27;20371;-73
2022/01/06 04:49:15;;;;;;;19.90;12.40;;;;;;;1.17;100.00;101039.16;5077261;28;20039;-73
2022/01/06 04:51:41;;;;;;;21.85;12.02;;;;;;;1.17;100.00;101049.25;5093349;27;20027;-74
2022/01/06 04:54:06;;;;;;;20.60;12.63;;;;;;;1.17;100.00;101041.91;5085972;28;20392;-74
2022/01/06 04:56:36;;;;;;;18.50;11.85;;;;;;;1.17;100.00;101046.50;5065426;28;20032;-74
2022/01/06 04:59:05;;;;;;;18.60;11.45;;;;;;;1.18;100.00;101043.56;5095466;28;20096;-73
2022/01/06 05:01:30;;;;;;;19.20;11.82;;;;;;;1.20;100.00;101044.19;5090334;28;20119;-73
2022/01/06 05:03:56;;;;;;;17.38;11.35;;;;;;;1.24;100.00;101039.13;5064090;28;20035;-73
2022/01/06 05:06:21;;;;;;;19.23;11.90;;;;;;;1.23;100.00;101046.50;5105935;28;20023;-74
2022/01/06 05:08:47;;;;;;;20.23;12.10;;;;;;;1.22;100.00;101046.69;5095608;28;20048;-73
2022/01/06 05:11:12;;;;;;;19.00;11.55;;;;;;;1.24;100.00;101052.78;5094868;28;20024;-73
2022/01/06 05:13:38;;;;;;;19.00;12.02;;;;;;;1.22;100.00;101047.53;5087822;28;20100;-74
2022/01/06 05:16:04;;;;;;;17.05;11.50;;;;;;;1.23;100.00;101043.75;5119767;28;20027;-73
2022/01/06 05:18:29;;;;;;;17.55;12.20;;;;;;;1.22;100.00;101047.53;5116555;28;20027;-74
2022/01/06 05:20:55;;;;;;;17.95;11.40;;;;;;;1.26;100.00;101050.69;5125261;28;20042;-73
2022/01/06 05:23:20;;;;;;;15.65;11.27;;;;;;;1.24;100.00;101044.59;5090041;28;20028;-73
2022/01/06 05:25:46;;;;;;;16.85;11.75;;;;;;;1.22;100.00;101050.25;5071938;28;20044;-73
2022/01/06 05:28:11;;;;;;;16.88;10.63;;;;;;;1.24;100.00;101050.06;5102382;28;20035;-73
2022/01/06 05:30:37;;;;;;;16.23;10.45;;;;;;;1.20;100.00;101054.28;5100636;28;20032;-74
2022/01/06 05:33:02;;;;;;;20.30;11.40;;;;;;;1.21;100.00;101055.97;5113446;28;20040;-73
2022/01/06 05:35:28;;;;;;;17.45;10.68;;;;;;;1.22;100.00;101054.91;5102585;28;20032;-73
2022/01/06 05:37:53;;;;;;;14.80;10.23;;;;;;;1.20;100.00;101049.66;5072745;28;20031;-73
2022/01/06 05:40:19;;;;;;;17.48;10.15;;;;;;;1.22;100.00;101053.00;5068294;28;20048;-73
2022/01/06 05:42:44;;;;;;;15.85;10.38;;;;;;;1.18;100.00;101053.69;5091081;28;20246;-73
2022/01/06 05:45:12;;;;;;;14.43;10.38;;;;;;;1.14;100.00;101052.41;5091636;28;20024;-74
2022/01/06 05:47:37;;;;;;;16.83;10.73;;;;;;;1.13;100.00;101064.44;5113190;28;20027;-73
2022/01/06 05:50:04;;;;;;;17.08;9.57;;;;;;;1.11;100.00;101057.28;5110586;28;20028;-74
2022/01/06 05:52:29;;;;;;;15.23;9.73;;;;;;;1.08;100.00;101063.16;5085242;28;20036;-73
2022/01/06 05:54:55;;;;;;;15.30;10.27;;;;;;;1.08;100.00;101059.59;5106729;28;20050;-73
2022/01/06 05:57:20;;;;;;;16.17;10.32;;;;;;;1.08;100.00;101057.69;5107186;28;20032;-73
2022/01/06 05:59:46;;;;;;;14.30;10.35;;;;;;;1.08;100.00;101063.16;5104569;28;20028;-74
2022/01/06 06:02:11;;;;;;;16.30;9.68;;;;;;;1.07;100.00;101066.97;5093504;28;20109;-73
2022/01/06 06:04:37;;;;;;;16.25;9.50;;;;;;;1.08;100.00;101063.16;5089737;28;20051;-73
2022/01/06 06:07:03;;;;;;;14.45;9.70;;;;;;;1.09;100.00;101064.88;5117229;28;20502;-73
2022/01/06 06:09:28;;;;;;;16.92;9.80;;;;;;;1.05;100.00;101063.63;5114227;28;20028;-73
2022/01/06 06:11:54;;;;;;;13.63;9.55;;;;;;;1.05;100.00;101069.09;5115945;28;20066;-73
2022/01/06 06:14:19;;;;;;;14.43;9.57;;;;;;;1.04;100.00;101070.16;5076949;28;20039;-73
2022/01/06 06:16:45;;;;;;;16.35;9.65;;;;;;;1.06;100.00;101070.78;5110072;28;20063;-73
2022/01/06 06:19:10;;;;;;;16.75;10.32;;;;;;;1.05;100.00;101070.97;5114754;28;20035;-73
2022/01/06 06:21:36;;;;;;;15.65;9.55;;;;;;;1.04;100.00;101078.34;5085007;28;20542;-73
2022/01/06 06:24:01;;;;;;;16.23;9.82;;;;;;;1.09;100.00;101086.75;5078268;28;20031;-73
2022/01/06 06:26:26;;;;;;;14.55;9.88;;;;;;;1.05;100.00;101087.41;5098700;28;20035;-74
2022/01/06 06:28:52;;;;;;;16.48;9.80;;;;;;;1.04;100.00;101091.19;5116501;28;20034;-73
2022/01/06 06:31:17;;;;;;;14.82;10.15;;;;;;;1.05;100.00;101090.97;5095911;28;20122;-73
2022/01/06 06:33:43;;;;;;;16.23;10.18;;;;;;;1.04;100.00;101094.75;5066623;28;20108;-73
2022/01/06 06:36:08;;;;;;;15.40;9.63;;;;;;;1.05;100.00;101084.66;5080846;28;20035;-73
2022/01/06 06:38:34;;;;;;;14.95;9.57;;;;;;;1.05;100.00;101085.50;5072798;27;20057;-73
2022/01/06 06:40:59;;;;;;;15.02;9.77;;;;;;;1.05;100.00;101084.66;5081244;28;20046;-73
2022/01/06 06:43:25;;;;;;;15.02;9.38;;;;;;;1.05;100.00;101084.66;5062425;28;20039;-73
2022/01/06 06:45:50;;;;;;;14.52;9.43;;;;;;;1.05;100.00;101080.03;5092874;28;20032;-73
2022/01/06 06:48:16;;;;;;;13.80;9.48;;;;;;;1.05;100.00;101088.22;5084105;27;20031;-73
2022/01/06 06:50:41;;;;;;;13.93;8.95;;;;;;;1.03;100.00;101086.75;5068157;28;20464;-73
2022/01/06 06:53:09;;;;;;;13.55;9.35;;;;;;;1.03;100.00;101093.09;5096823;28;20024;-73
2022/01/06 06:55:35;;;;;;;14.10;9.02;;;;;;;1.06;100.00;101091.84;5119372;27;20023;-73
2022/01/06 06:58:01;;;;;;;13.43;8.93;;;;;;;1.02;100.00;101090.56;5111381;27;20085;-73
2022/01/06 07:00:27;;;;;;;15.80;9.40;;;;;;;1.04;100.00;101093.94;5090915;28;20037;-73
2022/01/06 07:02:52;;;;;;;14.40;8.65;;;;;;;1.01;100.00;101097.09;5079550;28;20031;-73
2022/01/06 07:05:18;;;;;;;14.55;9.57;;;;;;;1.01;100.00;101100.69;5114272;28;20522;-74
2022/01/06 07:07:44;;;;;;;16.60;8.85;;;;;;;1.05;100.00;101095.59;5082761;28;20028;-73
2022/01/06 07:10:09;;;;;;;13.73;8.43;;;;;;;1.03;100.00;101100.44;5087835;28;20119;-73
2022/01/06 07:12:44;;;;;;;13.05;8.73;;;;;;;1.07;100.00;101105.28;5127699;27;20095;-72
2022/01/06 07:15:14;;;;;;;16.95;9.10;;;;;;;1.07;100.00;101115.38;5066973;28;20035;-76
2022/01/06 07:17:40;;;;;;;11.50;8.88;;;;;;;1.06;100.00;101110.97;5068873;28;20031;-74
2022/01/06 07:20:07;;;;;;;14.68;9.18;;;;;;;1.06;100.00;101108.25;5090861;28;20395;-73
2022/01/06 07:22:32;;;;;;;14.80;9.10;;;;;;;1.05;100.00;101112.84;5109519;28;20032;-73
2022/01/06 07:24:58;;;;;;;14.15;9.10;;;;;;;1.03;100.00;101104.03;5113545;28;20035;-73
2022/01/06 07:27:23;;;;;;;16.17;9.80;;;;;;;1.02;100.00;101109.72;5099366;28;20027;-74
2022/01/06 07:29:49;;;;;;;13.07;8.82;;;;;;;1.04;100.00;101111.19;5108000;28;20044;-74
2022/01/06 07:32:14;;;;;;;17.38;9.27;;;;;;;1.04;100.00;101111.19;5116675;27;20041;-74
2022/01/06 07:34:40;;;;;;;14.02;8.98;;;;;;;1.03;100.00;101109.50;5082602;28;20431;-74
2022/01/06 07:37:05;;;;;;;14.25;9.07;;;;;;;1.05;100.00;101112.00;5080665;28;20035;-74
2022/01/06 07:39:31;;;;;;;13.48;8.82;;;;;;;1.04;100.00;101110.34;5098209;28;20028;-74
2022/01/06 07:41:56;;;;;;;13.23;9.60;;;;;;;1.04;100.00;101102.13;5094712;28;20107;-74
2022/01/06 07:44:26;;;;;;;16.63;9.63;;;;;;;1.02;100.00;101107.81;5083028;27;20053;-80
2022/01/06 07:46:51;;;;;;;15.20;9.50;;;;;;;1.03;100.00;101109.50;5100834;27;20031;-73
2022/01/06 07:49:17;;;;;;;13.73;9.25;;;;;;;1.03;100.00;101119.59;5093040;28;20043;-73
2022/01/06 07:51:42;;;;;;;15.35;9.55;;;;;;;1.05;100.00;101112.84;5096039;28;20467;-74
2022/01/06 07:54:08;;;;;;;13.30;9.75;;;;;;;1.05;100.00;101122.97;5080340;28;20032;-74
2022/01/06 07:56:34;;;;;;;15.88;9.98;;;;;;;1.09;100.00;101125.06;5081785;27;20122;-73
2022/01/06 07:58:59;;;;;;;18.05;10.40;;;;;;;1.08;100.00;101134.31;5067713;28;20519;-74
2022/01/06 08:01:25;;;;;;;16.90;10.18;;;;;;;1.06;100.00;101130.13;5113040;27;20088;-73
2022/01/06 08:03:51;;;;;;;16.45;10.35;;;;;;;1.07;100.00;101137.25;5085441;27;20031;-74
2022/01/06 08:06:16;;;;;;;16.60;10.18;;;;;;;1.07;100.00;101138.09;5080864;28;20032;-73
2022/01/06 08:08:42;;;;;;;13.48;9.93;;;;;;;1.08;100.00;101153.44;5078398;28;20471;-73
2022/01/06 08:11:08;;;;;;;15.18;9.73;;;;;;;1.08;100.00;101149.88;5100808;27;20379;-73
2022/01/06 08:13:33;;;;;;;16.88;10.10;;;;;;;1.08;100.00;101155.34;5098881;28;20053;-74
2022/01/06 08:15:59;;;;;;;16.63;9.50;;;;;;;1.08;100.00;101156.19;5095014;28;20057;-73
2022/01/06 08:18:25;;;;;;;15.15;9.27;;;;;;;1.10;100.00;101155.97;5083146;28;20134;-73
2022/01/06 08:20:50;;;;;;;21.05;10.48;;;;;;;1.14;100.00;101159.13;5080475;28;20525;-74
2022/01/06 08:23:16;;;;;;;14.98;9.77;;;;;;;1.16;100.00;101165.22;5070630;27;20051;-73
2022/01/06 08:25:41;;;;;;;14.73;9.80;;;;;;;1.15;100.00;101164.38;5113389;28;20028;-73
2022/01/06 08:28:07;;;;;;;15.05;9.55;;;;;;;1.14;100.00;101159.94;5098372;28;20114;-73
2022/01/06 08:30:33;;;;;;;14.43;9.18;;;;;;;1.15;100.00;101155.34;5082686;28;20043;-73
2022/01/06 08:32:59;;;;;;;15.07;9.35;;;;;;;1.17;100.00;101159.56;5067640;28;20114;-74
2022/01/06 08:35:24;;;;;;;14.80;9.68;;;;;;;1.19;100.00;101156.56;5081708;28;20028;-74
2022/01/06 08:37:50;;;;;;;16.20;10.02;;;;;;;1.20;100.00;101152.78;5116426;27;20032;-74
2022/01/06 08:40:15;;;;;;;14.55;9.30;;;;;;;1.24;100.00;101154.03;5113031;28;20433;-74
2022/01/06 08:42:41;;;;;;;12.98;9.07;;;;;;;1.24;100.00;101164.97;5097672;28;20426;-74
2022/01/06 08:45:07;;;;;;;12.85;8.95;;;;;;;1.24;100.00;101165.81;5097978;28;20110;-74
2022/01/06 08:47:33;;;;;;;12.93;8.75;;;;;;;1.27;100.00;101170.03;5100090;27;20077;-74
2022/01/06 08:49:58;;;;;;;16.35;9.70;;;;;;;1.29;100.00;101162.44;5084311;27;20031;-74
2022/01/06 08:52:24;;;;;;;13.55;8.38;;;;;;;1.30;100.00;101161.38;5073005;28;20029;-73
2022/01/06 08:54:49;;;;;;;14.20;9.57;;;;;;;1.33;100.00;101158.19;5077664;28;20109;-74
2022/01/06 08:57:15;;;;;;;14.20;9.05;;;;;;;1.36;100.00;101162.41;5096631;28;20027;-73
2022/01/06 08:59:40;;;;;;;10.52;8.30;;;;;;;1.38;100.00;101157.56;5105570;28;20032;-74
2022/01/06 09:02:06;;;;;;;14.38;9.23;;;;;;;1.40;100.00;101158.19;5098982;28;20076;-74
2022/01/06 09:04:32;;;;;;;14.90;9.50;;;;;;;1.41;100.00;101155.22;5098603;28;20506;-74
2022/01/06 09:06:58;;;;;;;14.00;8.65;;;;;;;1.44;100.00;101149.31;5080305;28;20043;-73
2022/01/06 09:09:24;;;;;;;14.63;10.07;;;;;;;1.49;100.00;101160.44;5121693;27;20039;-74
2022/01/06 09:11:49;;;;;;;14.05;9.23;;;;;;;1.51;100.00;101163.81;5116474;27;20044;-73
2022/01/06 09:14:15;;;;;;;13.27;9.15;;;;;;;1.55;100.00;101162.31;5091181;28;20032;-73
2022/01/06 09:16:40;;;;;;;15.40;9.65;;;;;;;1.58;100.00;101160.19;5080576;28;20031;-74
2022/01/06 09:19:06;;;;;;;16.00;9.93;;;;;;;1.58;100.00;101160.19;5080289;28;20034;-74
2022/01/06 09:21:31;;;;;;;14.85;9.85;;;;;;;1.60;100.00;101160.81;5113628;28;20039;-73
2022/01/06 09:23:59;;;;;;;14.75;9.40;;;;;;;1.65;100.00;101170.06;5078056;28;20084;-73
2022/01/06 09:26:25;;;;;;;16.02;10.10;;;;;;;1.67;100.00;101162.47;5086358;28;20086;-74
2022/01/06 09:28:50;;;;;;;13.80;9.48;;;;;;;1.70;100.00;101162.03;5094968;28;20025;-73
2022/01/06 09:31:16;;;;;;;16.73;9.68;;;;;;;1.77;100.00;101161.97;5068492;28;20044;-73
2022/01/06 09:33:41;;;;;;;17.73;9.13;;;;;;;1.81;100.00;101152.25;5095110;28;20476;-73
2022/01/06 09:36:07;;;;;;;16.55;9.30;;;;;;;1.84;100.00;101154.56;5115356;28;20034;-73
2022/01/06 09:38:33;;;;;;;14.35;8.85;;;;;;;1.88;100.00;101152.22;5112590;28;20027;-74
2022/01/06 09:41:00;;;;;;;14.48;9.48;;;;;;;1.93;100.00;101155.16;5102287;28;20032;-73
2022/01/06 09:43:25;;;;;;;15.95;9.32;;;;;;;1.97;100.00;101148.97;5097308;28;20135;-73
2022/01/06 09:45:51;;;;;;;16.70;9.45;;;;;;;2.00;100.00;101151.28;5097438;28;20067;-74
2022/01/06 09:48:16;;;;;;;15.93;9.18;;;;;;;2.04;100.00;101143.47;5115117;27;21360;-74
2022/01/06 09:50:43;;;;;;;15.98;9.50;;;;;;;2.12;100.00;101147.84;5119014;28;20030;-73
2022/01/06 09:53:12;;;;;;;16.33;9.73;;;;;;;2.15;100.00;101137.28;5110453;27;20062;-73
2022/01/06 09:55:38;;;;;;;14.77;9.57;;;;;;;2.21;100.00;101141.03;5092102;28;20036;-72
2022/01/06 09:58:04;;;;;;;15.23;9.70;;;;;;;2.29;100.00;101142.66;5095260;28;20032;-72
2022/01/06 10:00:31;;;;;;;14.60;9.25;;;;;;;2.35;100.00;101131.63;5093825;28;20024;-72
2022/01/06 10:02:58;;;;;;;16.67;9.55;;;;;;;2.44;100.00;101133.00;5097303;28;20036;-73
2022/01/06 10:05:24;;;;;;;13.45;9.73;;;;;;;2.53;100.00;101135.47;5099904;28;20066;-73
2022/01/06 10:07:52;;;;;;;18.13;8.75;;;;;;;2.60;100.00;101136.25;5112844;27;20090;-73
2022/01/06 10:10:18;;;;;;;12.50;8.68;;;;;;;2.72;100.00;101136.34;5084466;28;20027;-73
2022/01/06 10:12:54;;;;;;;13.20;9.30;;;;;;;2.81;100.00;101130.31;5107228;27;20431;-73
2022/01/06 10:15:21;;;;;;;17.13;8.55;;;;;;;2.90;100.00;101131.72;5103544;28;20043;-73
2022/01/06 10:17:47;;;;;;;14.70;9.10;;;;;;;3.00;100.00;101119.34;5117737;28;20082;-73
2022/01/06 10:20:14;;;;;;;16.83;9.13;;;;;;;3.11;100.00;101116.66;5106267;27;20036;-73
2022/01/06 10:22:47;;;;;;;15.60;8.93;;;;;;;3.22;100.00;101117.81;5115198;28;20114;-73
2022/01/06 10:25:14;;;;;;;14.27;8.85;;;;;;;3.31;100.00;101112.84;5111883;28;20031;-73
2022/01/06 10:27:41;;;;;;;14.43;7.85;;;;;;;3.42;100.00;101113.97;5106828;28;20089;-73
2022/01/06 10:30:07;;;;;;;11.60;7.93;;;;;;;3.52;100.00;101108.75;5100015;28;20040;-73
2022/01/06 10:32:33;;;;;;;11.63;8.10;;;;;;;3.63;100.00;101107.97;5102507;28;20131;-73
2022/01/06 10:35:04;;;;;;;18.48;7.95;;;;;;;3.75;100.00;101117.06;5122113;27;20561;-73
2022/01/06 10:37:38;;;;;;;11.70;7.40;;;;;;;3.87;100.00;101116.28;5094466;28;20028;-73
2022/01/06 10:40:09;;;;;;;19.38;7.97;;;;;;;3.98;100.00;101115.47;5120083;27;20050;-73
2022/01/06 10:42:35;;;;;;;15.00;7.85;;;;;;;4.08;100.00;101112.97;5101080;28;20028;-73
2022/01/06 10:45:09;;;;;;;13.38;7.63;;;;;;;4.17;100.00;101114.31;5090935;28;20102;-73
2022/01/06 10:47:37;;;;;;;12.63;7.28;;;;;;;4.27;100.00;101121.16;5097118;28;20031;-73
2022/01/06 10:50:08;;;;;;;13.60;7.30;;;;;;;4.36;100.00;101115.06;5099671;28;20035;-73
2022/01/06 10:52:34;;;;;;;14.98;7.60;;;;;;;4.46;100.00;101117.22;5122184;27;20032;-73
2022/01/06 10:55:27;;;;;;;15.38;7.53;;;;;;;4.55;100.00;101114.94;5119576;27;20037;-73
2022/01/06 10:58:08;;;;;;;12.40;6.40;;;;;;;4.65;100.00;101106.91;5106686;27;20031;-74
2022/01/06 11:00:36;;;;;;;13.93;6.93;;;;;;;4.73;100.00;101098.28;5122608;27;20035;-73
2022/01/06 11:03:19;;;;;;;16.20;6.43;;;;;;;4.82;100.00;101096.00;5111466;28;20028;-77
2022/01/06 11:05:46;;;;;;;13.07;6.55;;;;;;;4.92;100.00;101102.56;5097261;28;20035;-73
2022/01/06 11:08:13;;;;;;;14.40;5.95;;;;;;;5.01;100.00;101108.53;5114021;28;20035;-73
2022/01/06 11:10:46;;;;;;;13.75;5.85;;;;;;;5.06;100.00;101099.56;5098296;28;20052;-73
2022/01/06 11:13:11;;;;;;;;;;;;;;;5.15;100.00;101111.84;5106953;28;20027;-72
2022/01/06 11:15:37;;;;;;;11.35;5.85;;;;;;;5.22;100.00;101114.50;5075412;28;19995;-71
2022/01/06 11:18:04;;;;;;;14.30;6.10;;;;;;;5.29;100.00;101104.16;5105640;28;20062;-71
2022/01/06 11:20:30;;;;;;;13.07;6.22;;;;;;;5.35;100.00;101108.72;5059580;28;20040;-71